createdAt,value
2023-05-24T04:48:27.071Z,8.70
2023-05-24T04:53:28.962Z,8.80
2023-05-24T04:58:30.816Z,8.90
2023-05-24T05:03:32.744Z,9.00
2023-05-24T05:08:34.660Z,9.10
2023-05-24T05:13:36.549Z,9.20
2023-05-24T05:18:38.407Z,9.30
2023-05-24T05:23:40.396Z,9.40
2023-05-24T05:28:42.567Z,9.50
2023-05-24T05:33:44.533Z,9.60
2023-05-24T05:38:46.739Z,9.80
2023-05-24T05:43:48.640Z,9.90
2023-05-24T05:48:50.632Z,10.00
2023-05-24T05:53:52.677Z,10.10
2023-05-24T05:58:54.725Z,10.30
2023-05-24T06:03:56.715Z,10.40
2023-05-24T06:08:59.671Z,10.60
2023-05-24T06:14:02.671Z,10.60
2023-05-24T06:19:06.665Z,10.80
2023-05-24T06:24:09.823Z,11.00
2023-05-24T06:29:11.777Z,11.20
2023-05-24T06:34:17.033Z,11.20
2023-05-24T06:39:19.263Z,11.30
2023-05-24T06:44:25.219Z,11.40
2023-05-24T06:49:27.572Z,11.60
2023-05-24T06:54:29.383Z,11.70
2023-05-24T06:59:31.569Z,11.80
2023-05-24T07:04:33.506Z,11.90
2023-05-24T07:09:35.824Z,12.00
2023-05-24T07:14:37.757Z,12.20
2023-05-24T07:19:39.702Z,12.30
2023-05-24T07:24:41.642Z,12.50
2023-05-24T07:29:44.345Z,12.50
2023-05-24T07:34:47.969Z,12.60
2023-05-24T07:39:50.760Z,12.60
2023-05-24T07:44:52.656Z,12.60
2023-05-24T07:49:54.824Z,12.60
2023-05-24T07:54:56.868Z,12.70
2023-05-24T07:59:58.783Z,12.90
2023-05-24T08:05:00.907Z,13.20
2023-05-24T08:10:03.444Z,13.40
2023-05-24T08:15:06.589Z,13.80
2023-05-24T08:20:10.074Z,14.00
2023-05-24T08:25:12.191Z,14.30
2023-05-24T08:30:14.688Z,14.60
2023-05-24T08:35:21.043Z,14.50
2023-05-24T08:40:25.055Z,14.70
2023-05-24T08:45:30.214Z,14.70
2023-05-24T08:50:32.751Z,14.90
2023-05-24T08:55:35.358Z,15.10
2023-05-24T09:00:37.307Z,15.20
2023-05-24T09:05:41.766Z,15.40
2023-05-24T09:10:53.887Z,15.60
2023-05-24T09:15:59.140Z,15.70
2023-05-24T09:21:01.262Z,15.80
2023-05-24T09:26:10.206Z,15.80
2023-05-24T09:31:13.821Z,16.00
2023-05-24T09:36:17.430Z,16.30
2023-05-24T09:41:20.610Z,16.70
2023-05-24T09:46:23.087Z,16.70
2023-05-24T09:51:25.509Z,16.50
2023-05-24T09:56:27.629Z,16.50
2023-05-24T10:01:31.954Z,16.70
2023-05-24T10:06:37.579Z,16.90
2023-05-24T10:11:40.278Z,17.00
2023-05-24T10:16:42.517Z,16.90
2023-05-24T10:21:45.063Z,17.00
2023-05-24T10:26:48.864Z,17.30
2023-05-24T10:31:51.700Z,17.30
2023-05-24T10:36:53.604Z,17.30
2023-05-24T10:42:03.001Z,17.50
2023-05-24T10:47:12.387Z,17.70
2023-05-24T10:52:14.344Z,17.80
2023-05-24T10:57:23.119Z,18.10
2023-05-24T11:02:28.479Z,18.20
2023-05-24T11:07:34.489Z,18.20
2023-05-24T11:12:38.968Z,18.40
2023-05-24T11:18:15.136Z,18.50
2023-05-24T11:23:18.006Z,18.20
2023-05-24T11:28:22.135Z,17.90
2023-05-24T11:33:24.594Z,17.80
2023-05-24T11:38:29.559Z,17.70
2023-05-24T11:43:31.747Z,17.40
2023-05-24T11:48:35.063Z,17.40
2023-05-24T11:53:37.830Z,17.20
2023-05-24T11:58:50.456Z,17.30
2023-05-24T12:03:55.473Z,17.40
2023-05-24T12:09:00.681Z,17.40
2023-05-24T12:14:02.811Z,17.50
2023-05-24T12:19:11.608Z,17.60
2023-05-24T12:24:17.660Z,17.60
2023-05-24T12:29:19.904Z,17.50
2023-05-24T12:34:22.558Z,17.50
2023-05-24T12:39:32.219Z,17.50
2023-05-24T12:44:35.790Z,17.30
2023-05-24T12:49:37.838Z,17.30
2023-05-24T12:54:39.749Z,17.40
2023-05-24T12:59:41.971Z,17.60
2023-05-24T13:04:43.978Z,17.90
2023-05-24T13:09:45.944Z,18.10
2023-05-24T13:14:49.129Z,18.30
2023-05-24T13:19:52.472Z,19.00
2023-05-24T13:24:54.398Z,19.20
2023-05-24T13:35:01.293Z,19.40
2023-05-24T13:40:04.327Z,19.70
2023-05-24T13:45:06.896Z,19.70
2023-05-24T13:50:09.317Z,19.40
2023-05-24T13:55:11.265Z,19.00
2023-05-24T14:00:14.534Z,18.70
2023-05-24T14:10:22.114Z,18.50
2023-05-24T14:15:24.149Z,18.30
2023-05-24T14:20:26.384Z,18.00
2023-05-24T14:25:28.376Z,18.00
2023-05-24T14:30:33.499Z,18.00
2023-05-24T14:35:39.924Z,18.20
2023-05-24T14:40:42.467Z,18.20
2023-05-24T14:45:44.721Z,18.10
2023-05-24T14:50:47.393Z,17.90
2023-05-24T14:55:49.790Z,17.80
2023-05-24T15:00:52.335Z,17.80
2023-05-24T15:05:54.351Z,17.70
2023-05-24T15:10:58.646Z,17.70
2023-05-24T15:16:01.339Z,18.00
2023-05-24T15:21:03.523Z,18.10
2023-05-24T15:26:09.309Z,18.10
2023-05-24T15:31:11.616Z,18.10
2023-05-24T15:36:17.114Z,18.00
2023-05-24T15:41:19.330Z,18.00
2023-05-24T15:46:27.421Z,18.20
2023-05-24T15:52:00.955Z,18.40
2023-05-24T15:56:51.845Z,18.70
2023-05-24T16:01:55.123Z,19.30
2023-05-24T16:06:57.359Z,19.70
2023-05-24T16:12:01.000Z,19.70
2023-05-24T16:17:05.588Z,19.40
2023-05-24T16:22:08.366Z,19.10
2023-05-24T16:27:16.266Z,18.80
2023-05-24T16:32:18.338Z,18.60
2023-05-24T16:37:20.435Z,18.40
2023-05-24T16:42:24.579Z,18.40
2023-05-24T16:48:12.080Z,18.30
2023-05-24T16:53:14.357Z,18.20
2023-05-24T16:58:16.787Z,18.20
2023-05-24T17:03:22.129Z,18.10
2023-05-24T17:08:25.939Z,18.00
2023-05-24T17:13:27.979Z,18.00
2023-05-24T17:18:30.117Z,18.00
2023-05-24T17:23:34.606Z,18.00
2023-05-24T17:28:36.651Z,18.00
2023-05-24T17:33:41.058Z,18.20
2023-05-24T17:38:43.000Z,18.30
2023-05-24T17:43:45.010Z,18.00
2023-05-24T17:48:47.973Z,17.70
2023-05-24T17:53:50.392Z,17.40
2023-05-24T17:58:52.282Z,17.30
2023-05-24T18:03:54.491Z,17.10
2023-05-24T18:08:59.961Z,16.80
2023-05-24T18:14:03.962Z,16.70
2023-05-24T18:19:07.089Z,16.50
2023-05-24T18:24:08.991Z,16.30
2023-05-24T18:29:11.039Z,16.20
2023-05-24T18:34:13.705Z,16.20
2023-05-24T18:39:16.243Z,16.00
2023-05-24T18:44:18.167Z,15.90
2023-05-24T18:49:21.431Z,15.80
2023-05-24T18:54:25.414Z,15.60
2023-05-24T18:59:29.634Z,15.60
2023-05-24T19:04:32.338Z,15.60
2023-05-24T19:09:34.749Z,15.50
2023-05-24T19:14:37.509Z,15.50
2023-05-24T19:19:39.549Z,15.30
2023-05-24T19:24:41.785Z,15.30
2023-05-24T19:29:44.122Z,15.20
2023-05-24T19:34:46.471Z,15.20
2023-05-24T19:39:48.899Z,15.10
